createdAt,value
2018-12-04T00:00:27.025Z,8.20
2018-12-04T00:02:54.465Z,11.73
2018-12-04T00:05:22.008Z,7.73
2018-12-04T00:07:49.422Z,9.23
2018-12-04T00:10:16.946Z,8.90
2018-12-04T00:12:44.392Z,7.50
2018-12-04T00:15:11.828Z,12.47
2018-12-04T00:17:39.398Z,5.43
2018-12-04T00:20:07.167Z,10.27
2018-12-04T00:22:35.212Z,8.30
2018-12-04T00:25:03.807Z,8.23
2018-12-04T00:27:31.309Z,7.00
2018-12-04T00:29:59.400Z,8.07
2018-12-04T00:32:26.885Z,9.23
2018-12-04T00:34:54.358Z,9.83
2018-12-04T00:37:21.889Z,11.77
2018-12-04T00:39:49.342Z,12.67
2018-12-04T00:42:16.766Z,7.67
2018-12-04T00:44:44.246Z,6.73
2018-12-04T00:47:11.718Z,6.70
2018-12-04T00:49:39.169Z,8.90
2018-12-04T00:52:06.624Z,6.80
2018-12-04T00:54:34.060Z,7.27
2018-12-04T00:57:02.150Z,10.93
2018-12-04T00:59:29.543Z,10.20
2018-12-04T01:01:57.038Z,6.67
2018-12-04T01:04:24.556Z,7.07
2018-12-04T01:06:52.121Z,9.53
2018-12-04T01:09:19.559Z,6.37
2018-12-04T01:11:47.010Z,7.27
2018-12-04T01:14:14.569Z,7.67
2018-12-04T01:16:42.059Z,7.33
2018-12-04T01:19:09.500Z,11.20
2018-12-04T01:21:37.006Z,7.37
2018-12-04T01:24:05.217Z,5.07
2018-12-04T01:26:32.747Z,6.87
2018-12-04T01:29:00.458Z,9.00
2018-12-04T01:31:28.465Z,6.23
2018-12-04T01:33:55.931Z,7.60
2018-12-04T01:36:23.398Z,8.37
2018-12-04T01:38:50.855Z,6.13
2018-12-04T01:41:18.295Z,5.63
2018-12-04T01:43:46.993Z,3.90
2018-12-04T01:46:15.259Z,9.30
2018-12-04T01:48:42.699Z,8.10
2018-12-04T01:51:10.230Z,5.60
2018-12-04T01:53:37.622Z,7.27
2018-12-04T01:56:05.071Z,7.47
2018-12-04T01:58:32.507Z,8.80
2018-12-04T02:00:59.933Z,7.23
2018-12-04T02:03:27.408Z,6.50
2018-12-04T02:05:55.745Z,5.53
2018-12-04T02:08:23.151Z,7.03
2018-12-04T02:10:50.568Z,5.90
2018-12-04T02:13:18.162Z,8.90
2018-12-04T02:15:45.604Z,7.33
2018-12-04T02:18:13.056Z,7.43
2018-12-04T02:20:40.662Z,5.90
2018-12-04T02:23:08.130Z,4.17
2018-12-04T02:25:35.576Z,8.90
2018-12-04T02:28:03.033Z,8.70
2018-12-04T02:30:30.598Z,9.83
2018-12-04T02:32:58.089Z,9.00
2018-12-04T02:35:25.506Z,10.03
2018-12-04T02:37:52.996Z,6.00
2018-12-04T02:40:20.423Z,6.60
2018-12-04T02:42:47.880Z,7.93
2018-12-04T02:45:15.318Z,6.53
2018-12-04T02:47:42.925Z,9.50
2018-12-04T02:50:14.274Z,5.77
2018-12-04T02:52:41.684Z,5.00
2018-12-04T02:55:09.133Z,5.57
2018-12-04T02:57:36.541Z,5.40
2018-12-04T03:00:04.314Z,6.53
2018-12-04T03:02:32.325Z,6.47
2018-12-04T03:04:59.737Z,6.60
2018-12-04T03:07:27.265Z,4.73
2018-12-04T03:09:54.733Z,4.57
2018-12-04T03:12:22.153Z,4.13
2018-12-04T03:14:49.691Z,3.50
2018-12-04T03:17:17.080Z,5.60
2018-12-04T03:19:44.555Z,4.93
2018-12-04T03:22:11.995Z,4.87
2018-12-04T03:24:39.430Z,5.27
2018-12-04T03:27:06.975Z,3.67
2018-12-04T03:29:34.490Z,7.03
2018-12-04T03:32:01.890Z,7.40
2018-12-04T03:34:29.298Z,5.73
2018-12-04T03:36:56.695Z,4.67
2018-12-04T03:39:24.396Z,5.70
2018-12-04T03:41:52.734Z,9.50
2018-12-04T03:44:20.151Z,5.67
2018-12-04T03:46:47.557Z,10.23
2018-12-04T03:49:15.084Z,6.87
2018-12-04T03:51:42.552Z,7.63
2018-12-04T03:54:09.985Z,5.83
2018-12-04T03:56:37.381Z,8.30
2018-12-04T03:59:04.894Z,5.17
2018-12-04T04:01:32.383Z,9.97
2018-12-04T04:03:59.767Z,3.73
2018-12-04T04:06:27.264Z,6.43
2018-12-04T04:08:54.699Z,4.80
2018-12-04T04:11:22.786Z,8.73
2018-12-04T04:13:50.190Z,6.13
2018-12-04T04:16:17.658Z,6.87
2018-12-04T04:18:45.181Z,9.47
2018-12-04T04:21:12.613Z,8.27
2018-12-04T04:23:40.015Z,8.27
2018-12-04T04:26:07.473Z,8.27
2018-12-04T04:28:34.977Z,8.67
2018-12-04T04:31:02.528Z,7.53
2018-12-04T04:33:29.929Z,10.27
2018-12-04T04:35:58.831Z,6.03
2018-12-04T04:38:26.294Z,8.77
2018-12-04T04:40:53.753Z,11.00
2018-12-04T04:43:22.108Z,7.47
2018-12-04T04:45:49.560Z,6.10
2018-12-04T04:48:16.998Z,7.30
2018-12-04T04:50:44.510Z,6.23
2018-12-04T04:53:11.915Z,8.77
2018-12-04T04:55:39.412Z,8.63
2018-12-04T04:58:06.797Z,7.53
2018-12-04T05:00:34.182Z,10.70
2018-12-04T05:03:01.613Z,6.97
2018-12-04T05:05:33.319Z,7.53
2018-12-04T05:08:01.017Z,6.27
2018-12-04T05:10:29.284Z,9.10
2018-12-04T05:12:56.700Z,8.60
2018-12-04T05:15:24.127Z,6.40
2018-12-04T05:17:51.654Z,7.67
2018-12-04T05:20:19.158Z,5.83
2018-12-04T05:22:46.608Z,9.30
2018-12-04T05:25:14.053Z,7.70
2018-12-04T05:27:41.484Z,8.27
2018-12-04T05:30:09.084Z,7.70
2018-12-04T05:32:36.527Z,9.37
2018-12-04T05:35:03.958Z,8.30
2018-12-04T05:37:31.502Z,3.73
2018-12-04T05:39:59.060Z,11.80
2018-12-04T05:42:27.187Z,6.60
2018-12-04T05:44:54.724Z,8.93
2018-12-04T05:47:22.221Z,14.97
2018-12-04T05:49:49.698Z,7.03
2018-12-04T05:52:17.123Z,7.07
2018-12-04T05:54:44.702Z,12.20
2018-12-04T05:57:12.664Z,9.33
2018-12-04T05:59:40.134Z,10.20
2018-12-04T06:02:07.538Z,6.70
2018-12-04T06:04:35.019Z,7.23
2018-12-04T06:07:02.439Z,6.97
2018-12-04T06:09:29.975Z,5.63
2018-12-04T06:11:57.409Z,6.57
2018-12-04T06:14:24.859Z,5.67
2018-12-04T06:16:52.258Z,5.07
2018-12-04T06:19:19.705Z,6.50
2018-12-04T06:21:47.138Z,8.87
2018-12-04T06:24:14.549Z,6.53
2018-12-04T06:26:42.054Z,6.40
2018-12-04T06:29:09.617Z,4.87
2018-12-04T06:31:37.604Z,4.27
2018-12-04T06:34:05.040Z,7.03
2018-12-04T06:36:32.564Z,3.97
2018-12-04T06:39:00.036Z,5.97
2018-12-04T06:41:27.466Z,7.17
2018-12-04T06:43:55.002Z,4.33
2018-12-04T06:46:23.204Z,4.97
2018-12-04T06:48:50.620Z,4.83
2018-12-04T06:51:18.043Z,2.30
2018-12-04T06:53:45.437Z,8.43
2018-12-04T06:56:12.824Z,3.70
2018-12-04T06:58:40.216Z,2.43
2018-12-04T07:01:07.638Z,5.43
2018-12-04T07:03:35.063Z,4.10
2018-12-04T07:06:02.639Z,4.13
2018-12-04T07:08:30.089Z,4.70
2018-12-04T07:10:57.572Z,7.27
2018-12-04T07:13:25.172Z,5.17
2018-12-04T07:15:52.634Z,4.30
2018-12-04T07:18:20.026Z,3.60
2018-12-04T07:20:47.475Z,5.90
2018-12-04T07:23:14.874Z,6.43
2018-12-04T07:25:42.366Z,8.07
2018-12-04T07:28:09.786Z,4.83
2018-12-04T07:30:38.322Z,8.90
2018-12-04T07:33:05.770Z,5.03
2018-12-04T07:35:33.188Z,4.47
2018-12-04T07:38:00.588Z,5.37
2018-12-04T07:40:28.037Z,4.33
2018-12-04T07:42:55.454Z,7.97
2018-12-04T07:45:22.918Z,5.87
2018-12-04T07:47:50.371Z,6.20
2018-12-04T07:50:17.778Z,5.00
2018-12-04T07:52:45.294Z,12.90
2018-12-04T07:55:12.735Z,6.23
2018-12-04T07:57:40.155Z,8.77
2018-12-04T08:00:08.094Z,12.67
2018-12-04T08:02:35.524Z,4.83
2018-12-04T08:05:03.693Z,12.67
2018-12-04T08:07:31.121Z,7.67
2018-12-04T08:09:58.498Z,11.13
2018-12-04T08:12:26.237Z,7.20
2018-12-04T08:14:53.619Z,9.10
2018-12-04T08:17:21.047Z,7.70
2018-12-04T08:19:48.430Z,6.23
2018-12-04T08:22:15.809Z,7.50
2018-12-04T08:24:43.237Z,9.07
2018-12-04T08:27:11.777Z,5.53
2018-12-04T08:29:39.199Z,6.50
2018-12-04T08:32:06.583Z,11.13
2018-12-04T08:34:34.038Z,6.30
2018-12-04T08:37:01.423Z,8.37
2018-12-04T08:39:29.054Z,8.77
2018-12-04T08:41:56.460Z,10.17
2018-12-04T08:44:23.947Z,6.03
2018-12-04T08:46:51.350Z,6.77
2018-12-04T08:49:18.808Z,3.50
2018-12-04T08:51:46.307Z,4.30
2018-12-04T08:54:13.800Z,4.70
2018-12-04T08:56:41.237Z,6.43
2018-12-04T08:59:17.194Z,5.60
2018-12-04T09:02:04.295Z,3.57
2018-12-04T09:04:32.127Z,7.33
2018-12-04T09:06:59.658Z,7.60
2018-12-04T09:09:27.202Z,5.97
2018-12-04T09:11:54.725Z,6.47
2018-12-04T09:14:22.385Z,3.80
2018-12-04T09:16:49.738Z,7.23
2018-12-04T09:19:17.182Z,7.33
2018-12-04T09:21:44.666Z,5.00
2018-12-04T09:24:12.371Z,6.17
2018-12-04T09:26:39.860Z,3.43
2018-12-04T09:29:07.435Z,3.23
2018-12-04T09:31:35.038Z,4.13
2018-12-04T09:34:02.524Z,3.23
2018-12-04T09:36:30.009Z,3.57
2018-12-04T09:38:57.703Z,1.60
2018-12-04T09:41:25.214Z,4.17
2018-12-04T09:43:52.708Z,1.37
2018-12-04T09:46:20.340Z,1.33
2018-12-04T09:48:48.125Z,2.73
2018-12-04T09:51:15.740Z,1.37
2018-12-04T09:53:45.358Z,1.97
2018-12-04T09:56:13.570Z,4.83
2018-12-04T09:58:40.993Z,1.83
2018-12-04T10:01:08.525Z,2.50
2018-12-04T10:03:36.618Z,3.60
2018-12-04T10:06:04.116Z,3.13
2018-12-04T10:08:31.511Z,2.93
2018-12-04T10:10:58.970Z,2.20
2018-12-04T10:13:26.357Z,6.10
2018-12-04T10:15:53.789Z,3.03
2018-12-04T10:18:21.215Z,2.73
2018-12-04T10:20:48.662Z,2.63
2018-12-04T10:23:16.133Z,2.33
2018-12-04T10:25:50.679Z,3.80
2018-12-04T10:28:19.636Z,4.07
2018-12-04T10:30:52.491Z,3.37
2018-12-04T10:33:19.890Z,5.63
2018-12-04T10:35:47.295Z,7.63
2018-12-04T10:38:14.658Z,3.17
2018-12-04T10:40:42.217Z,5.60
2018-12-04T10:43:17.218Z,3.33
2018-12-04T10:45:44.691Z,9.13
2018-12-04T10:48:12.199Z,4.47
2018-12-04T10:50:39.605Z,3.17
2018-12-04T10:53:07.040Z,4.70
2018-12-04T10:55:34.448Z,2.90
2018-12-04T10:58:01.905Z,4.77
2018-12-04T11:00:34.698Z,2.50
2018-12-04T11:03:07.568Z,2.23
2018-12-04T11:05:34.975Z,2.70
2018-12-04T11:08:02.423Z,3.47
2018-12-04T11:10:29.870Z,1.57
2018-12-04T11:12:57.336Z,1.17
2018-12-04T11:15:25.384Z,2.13
2018-12-04T11:17:53.327Z,1.60
2018-12-04T11:20:20.907Z,3.50
2018-12-04T11:22:48.345Z,2.00
2018-12-04T11:25:15.755Z,3.53
2018-12-04T11:27:43.265Z,4.07
2018-12-04T11:30:10.734Z,2.40
2018-12-04T11:32:38.222Z,3.63
2018-12-04T11:35:05.849Z,6.33
2018-12-04T11:37:33.769Z,5.07
2018-12-04T11:40:01.248Z,2.33
2018-12-04T11:42:28.671Z,4.33
2018-12-04T11:44:56.826Z,3.67
2018-12-04T11:47:25.346Z,3.60
2018-12-04T11:49:52.874Z,2.63
2018-12-04T11:52:20.537Z,5.10
2018-12-04T11:54:48.055Z,5.17
2018-12-04T11:57:15.589Z,5.10
2018-12-04T11:59:43.131Z,6.10
2018-12-04T12:02:10.906Z,6.10
2018-12-04T12:04:38.478Z,8.20
2018-12-04T12:07:05.930Z,7.70
2018-12-04T12:09:33.389Z,2.83
2018-12-04T12:12:00.943Z,5.10
2018-12-04T12:14:28.370Z,5.10
2018-12-04T12:16:55.847Z,5.40
2018-12-04T12:19:23.432Z,6.03
2018-12-04T12:21:50.867Z,5.67
2018-12-04T12:24:18.388Z,3.43
2018-12-04T12:26:45.919Z,4.23
2018-12-04T12:29:13.400Z,4.83
2018-12-04T12:31:40.970Z,3.23
2018-12-04T12:34:08.424Z,7.20
2018-12-04T12:36:35.919Z,2.97
2018-12-04T12:39:03.843Z,2.80
2018-12-04T12:41:31.313Z,1.87
2018-12-04T12:46:26.818Z,5.03
2018-12-04T12:48:54.276Z,3.10
2018-12-04T12:51:21.659Z,6.00
2018-12-04T12:53:49.095Z,3.17
2018-12-04T12:56:16.672Z,3.80
2018-12-04T12:58:44.130Z,4.30
2018-12-04T13:01:11.654Z,6.00
2018-12-04T13:03:39.356Z,1.43
2018-12-04T13:06:06.752Z,4.50
2018-12-04T13:08:34.719Z,3.23
2018-12-04T13:11:02.137Z,3.17
2018-12-04T13:13:29.656Z,2.50
2018-12-04T13:15:57.177Z,6.43
2018-12-04T13:18:25.350Z,5.37
2018-12-04T13:20:52.818Z,5.83
2018-12-04T13:23:20.323Z,4.73
2018-12-04T13:25:48.456Z,4.07
2018-12-04T13:28:16.083Z,6.17
2018-12-04T13:30:44.678Z,3.90
2018-12-04T13:33:12.186Z,3.60
2018-12-04T13:35:39.988Z,5.30
2018-12-04T13:38:08.582Z,4.57
2018-12-04T13:40:36.933Z,6.30
2018-12-04T13:43:05.414Z,5.40
2018-12-04T13:45:33.033Z,4.93
2018-12-04T13:48:00.925Z,2.87
2018-12-04T13:50:28.605Z,4.10
2018-12-04T13:52:57.234Z,5.50
2018-12-04T13:55:25.110Z,6.33
2018-12-04T13:57:54.166Z,6.00
2018-12-04T14:00:22.438Z,4.80
2018-12-04T14:02:50.337Z,3.77
2018-12-04T14:05:18.900Z,11.97
2018-12-04T14:07:48.618Z,5.27
2018-12-04T14:10:16.903Z,8.43
2018-12-04T14:12:44.921Z,7.43
2018-12-04T14:15:13.840Z,3.53
2018-12-04T14:17:41.750Z,6.40
2018-12-04T14:20:09.479Z,6.20
2018-12-04T14:22:37.530Z,5.03
2018-12-04T14:25:05.391Z,9.17
2018-12-04T14:27:32.985Z,4.60
2018-12-04T14:30:00.637Z,4.93
2018-12-04T14:32:29.137Z,3.70
2018-12-04T14:34:58.041Z,7.90
2018-12-04T14:37:25.928Z,3.40
2018-12-04T14:39:53.550Z,5.47
2018-12-04T14:42:21.153Z,5.47
2018-12-04T14:44:49.417Z,7.03
2018-12-04T14:47:18.014Z,5.47
2018-12-04T14:49:46.213Z,4.87
2018-12-04T14:52:13.748Z,6.73
2018-12-04T14:54:42.228Z,4.00
2018-12-04T14:57:12.285Z,7.93
2018-12-04T14:59:40.934Z,4.63
2018-12-04T15:02:09.358Z,5.50
2018-12-04T15:04:41.391Z,6.33
2018-12-04T15:07:09.017Z,4.37
2018-12-04T15:09:36.902Z,6.20
2018-12-04T15:12:05.248Z,4.13
2018-12-04T15:14:32.806Z,7.13
2018-12-04T15:17:00.286Z,7.13
2018-12-04T15:19:28.002Z,6.33
2018-12-04T15:21:56.594Z,3.57
2018-12-04T15:24:24.904Z,4.00
2018-12-04T15:26:53.905Z,8.80
2018-12-04T15:29:21.630Z,7.27
2018-12-04T15:31:49.133Z,3.37
2018-12-04T15:34:16.858Z,5.07
2018-12-04T15:36:44.631Z,4.53
2018-12-04T15:39:14.666Z,7.00
2018-12-04T15:41:46.190Z,5.93
2018-12-04T15:44:13.654Z,5.37
2018-12-04T15:46:42.623Z,3.03
2018-12-04T15:49:10.275Z,4.67
2018-12-04T15:51:37.917Z,10.40
2018-12-04T15:54:06.408Z,8.53
2018-12-04T15:56:34.910Z,6.37
2018-12-04T15:59:02.663Z,7.73
2018-12-04T16:01:30.387Z,7.97
2018-12-04T16:03:58.228Z,11.63
2018-12-04T16:06:26.267Z,4.13
2018-12-04T16:08:54.444Z,4.37
2018-12-04T16:11:26.505Z,5.73
2018-12-04T16:13:55.150Z,4.97
2018-12-04T16:16:22.819Z,8.53
2018-12-04T16:18:50.681Z,8.93
2018-12-04T16:21:18.952Z,5.87
2018-12-04T16:23:47.462Z,4.50
2018-12-04T16:26:17.217Z,4.87
2018-12-04T16:28:44.982Z,9.17
2018-12-04T16:31:12.564Z,6.53
2018-12-04T16:33:40.860Z,4.90
2018-12-04T16:36:11.503Z,5.73
2018-12-04T16:38:39.365Z,4.90
2018-12-04T16:41:07.812Z,8.47
2018-12-04T16:43:37.043Z,6.17
2018-12-04T16:46:05.000Z,4.10
2018-12-04T16:48:32.699Z,7.07
2018-12-04T16:51:00.315Z,5.77
2018-12-04T16:53:42.492Z,6.30
2018-12-04T16:56:14.097Z,5.13
2018-12-04T16:58:50.826Z,5.87
2018-12-04T17:01:18.907Z,7.87
2018-12-04T17:03:58.803Z,6.33
2018-12-04T17:06:35.390Z,4.77
2018-12-04T17:09:18.645Z,5.60
2018-12-04T17:11:55.584Z,9.53
2018-12-04T17:14:37.192Z,6.40
2018-12-04T17:17:13.219Z,6.80
2018-12-04T17:19:54.898Z,6.50
2018-12-04T17:22:30.863Z,5.27
2018-12-04T17:25:11.714Z,5.33
2018-12-04T17:27:47.900Z,4.40
2018-12-04T17:30:26.748Z,5.60
2018-12-04T17:33:05.582Z,7.40
2018-12-04T17:35:33.211Z,5.67
2018-12-04T17:38:09.434Z,7.13
2018-12-04T17:40:37.921Z,4.40
2018-12-04T17:43:05.628Z,4.80
2018-12-04T17:45:33.612Z,7.63
2018-12-04T17:48:01.457Z,6.50
2018-12-04T17:50:28.973Z,4.37
2018-12-04T17:52:56.760Z,7.33
2018-12-04T17:55:28.377Z,7.33
2018-12-04T17:57:56.999Z,8.57
2018-12-04T18:00:24.608Z,6.53
2018-12-04T18:02:52.379Z,6.97
2018-12-04T18:05:27.235Z,7.40
2018-12-04T18:07:54.849Z,9.50
2018-12-04T18:10:23.785Z,6.37
2018-12-04T18:12:52.139Z,8.73
2018-12-04T18:15:21.178Z,8.03
2018-12-04T18:17:49.107Z,10.83
2018-12-04T18:20:16.702Z,7.37
2018-12-04T18:22:44.578Z,7.47
2018-12-04T18:25:13.230Z,6.60
2018-12-04T18:27:41.248Z,10.20
2018-12-04T18:30:09.270Z,10.40
2018-12-04T18:32:39.145Z,7.67
2018-12-04T18:35:07.619Z,7.10
2018-12-04T18:37:40.730Z,14.60
2018-12-04T18:40:21.097Z,7.50
2018-12-04T18:43:05.999Z,7.60
2018-12-04T18:45:41.485Z,10.00
2018-12-04T18:48:12.134Z,5.80
2018-12-04T18:50:39.823Z,8.07
2018-12-04T18:53:07.460Z,8.87
2018-12-04T18:55:48.582Z,7.30
2018-12-04T18:58:28.908Z,9.83
2018-12-04T19:01:08.975Z,12.83
2018-12-04T19:03:37.115Z,10.63
2018-12-04T19:06:04.951Z,9.97
2018-12-04T19:08:42.809Z,8.37
2018-12-04T19:11:16.402Z,8.20
2018-12-04T19:13:50.346Z,8.17
2018-12-04T19:16:19.528Z,10.70
2018-12-04T19:18:47.252Z,11.57
2018-12-04T19:21:14.848Z,11.10
2018-12-04T19:23:42.922Z,7.73
2018-12-04T19:26:12.782Z,7.50
2018-12-04T19:28:40.370Z,6.77
2018-12-04T19:31:12.146Z,8.93
2018-12-04T19:33:39.571Z,9.63
2018-12-04T19:36:07.250Z,8.13
2018-12-04T19:38:34.693Z,8.63
2018-12-04T19:41:02.286Z,7.70
2018-12-04T19:43:30.637Z,11.33
2018-12-04T19:45:58.178Z,9.67
2018-12-04T19:48:25.616Z,10.13
2018-12-04T19:50:53.243Z,9.20
2018-12-04T19:53:20.874Z,9.80
2018-12-04T19:55:53.842Z,8.93
2018-12-04T19:58:22.348Z,10.23
2018-12-04T20:00:50.565Z,10.40
2018-12-04T20:03:19.860Z,8.03
2018-12-04T20:05:51.330Z,9.87
2018-12-04T20:08:19.139Z,11.83
2018-12-04T20:10:47.728Z,11.83
2018-12-04T20:13:15.377Z,9.57
2018-12-04T20:16:05.163Z,10.23
2018-12-04T20:18:32.820Z,12.93
2018-12-04T20:21:08.409Z,13.03
2018-12-04T20:23:36.343Z,10.57
2018-12-04T20:26:04.756Z,10.30
2018-12-04T20:28:32.209Z,11.77
2018-12-04T20:30:59.815Z,10.20
2018-12-04T20:33:27.543Z,10.23
2018-12-04T20:35:55.226Z,10.53
2018-12-04T20:38:22.826Z,10.13
2018-12-04T20:40:50.478Z,12.70
2018-12-04T20:43:18.022Z,12.60
2018-12-04T20:45:52.817Z,15.37
2018-12-04T20:48:20.350Z,11.40
2018-12-04T20:50:48.188Z,11.00
2018-12-04T20:53:15.801Z,10.53
2018-12-04T20:55:43.288Z,12.50
2018-12-04T20:58:16.590Z,10.03
2018-12-04T21:00:45.829Z,10.53
2018-12-04T21:03:14.044Z,11.97
2018-12-04T21:05:41.821Z,10.43
2018-12-04T21:08:11.001Z,12.37
2018-12-04T21:10:38.562Z,12.30
2018-12-04T21:13:06.716Z,14.07
2018-12-04T21:15:34.355Z,12.00
2018-12-04T21:18:01.951Z,11.97
2018-12-04T21:20:30.148Z,17.63
2018-12-04T21:22:57.911Z,13.73
2018-12-04T21:25:25.583Z,12.30
2018-12-04T21:28:03.027Z,13.03
2018-12-04T21:30:39.397Z,10.10
2018-12-04T21:33:13.201Z,11.27
2018-12-04T21:35:57.061Z,12.73
2018-12-04T21:38:47.976Z,10.83
2018-12-04T21:41:42.311Z,12.00
2018-12-04T21:44:15.854Z,11.83
2018-12-04T21:46:49.578Z,16.03
2018-12-04T21:49:17.206Z,10.70
2018-12-04T21:51:45.632Z,10.73
2018-12-04T21:54:13.444Z,8.63
2018-12-04T21:56:41.035Z,12.77
2018-12-04T21:59:08.514Z,15.30
2018-12-04T22:01:40.778Z,8.67
2018-12-04T22:04:09.163Z,11.37
2018-12-04T22:09:18.518Z,11.03
2018-12-04T22:11:50.579Z,9.33
2018-12-04T22:14:30.828Z,10.27
2018-12-04T22:20:08.554Z,10.07
2018-12-04T22:22:36.106Z,7.30
2018-12-04T22:25:12.444Z,10.33
2018-12-04T22:27:40.361Z,7.20
2018-12-04T22:30:09.119Z,7.53
2018-12-04T22:32:37.135Z,7.47
2018-12-04T22:35:20.113Z,6.83
2018-12-04T22:37:51.445Z,7.37
2018-12-04T22:40:20.000Z,7.53
2018-12-04T22:42:47.984Z,7.67
2018-12-04T22:45:22.404Z,6.17
2018-12-04T22:47:50.610Z,9.43
2018-12-04T22:50:20.118Z,8.93
2018-12-04T22:52:50.153Z,7.13
2018-12-04T22:55:18.271Z,8.20
2018-12-04T22:57:45.771Z,6.27
2018-12-04T23:00:19.004Z,10.67
2018-12-04T23:02:48.272Z,8.63
2018-12-04T23:05:20.115Z,11.50
2018-12-04T23:10:14.099Z,10.83
2018-12-04T23:12:43.449Z,6.37
2018-12-04T23:15:11.087Z,9.90
2018-12-04T23:17:45.101Z,6.60
2018-12-04T23:20:18.408Z,10.50
2018-12-04T23:22:53.741Z,6.97
2018-12-04T23:25:25.839Z,12.60
2018-12-04T23:28:01.720Z,7.10
2018-12-04T23:30:30.619Z,5.63
2018-12-04T23:33:01.733Z,5.97
2018-12-04T23:35:35.138Z,4.40
2018-12-04T23:38:02.890Z,6.87
2018-12-04T23:40:34.096Z,6.73
2018-12-04T23:43:01.629Z,6.17
2018-12-04T23:45:29.907Z,6.47
2018-12-04T23:47:57.363Z,6.70
2018-12-04T23:50:24.994Z,8.03
2018-12-04T23:52:52.611Z,5.37
2018-12-04T23:55:20.261Z,8.73
2018-12-04T23:57:47.895Z,7.40
